Terminal Aerodrome Forecast
Issued by NWS

Home | Current Version | Previous Version | Text Only | Print | Product List | Glossary On
Versions: 1 2 3 4 5 6 7 8 9 10 11 12 13 14 15 16 17 18 19 20 21 22 23
000
FTUS44 KFWD 291500 AAA
TAFFTW
TAF AMD
KFTW 291500Z 2915/3012 15011KT P6SM SKC
     FM291600 19016G26KT P6SM SKC
     FM300000 15008KT P6SM SCT060 BKN250
     FM300600 09006KT P6SM SCT060 BKN250
     FM301000 05007KT P6SM BKN015=

USA.gov is the U.S. government's official web portal to all federal, state and local government web resources and services.